Time;durP1;ratioP1;P1;durP2;ratioP2;P2;SDS_P1;SDS_P2;PMS_P1;PMS_P2;Temp;Humidity;BMP_temperature;BMP_pressure;BME280_temperature;BME280_humidity;BME280_pressure;Samples;Min_cycle;Max_cycle;Signal;HPM_P1;HPM_P2
2023/10/24 00:01:50;;;;;;;4.78;1.70;;;10.70;99.90;;;;;;5086680;27;20035;-71
2023/10/24 00:04:15;;;;;;;1.27;0.60;;;10.70;99.90;;;;;;5084974;27;20039;-70
2023/10/24 00:06:41;;;;;;;0.95;0.95;;;10.70;99.90;;;;;;5087362;28;20032;-68
2023/10/24 00:09:06;;;;;;;1.60;0.75;;;10.70;99.90;;;;;;5082652;28;20036;-68
2023/10/24 00:11:33;;;;;;;2.38;0.93;;;10.70;99.90;;;;;;5084724;28;20036;-69
2023/10/24 00:13:59;;;;;;;1.70;0.65;;;10.70;99.90;;;;;;5080585;28;20062;-67
2023/10/24 00:16:25;;;;;;;1.02;0.95;;;10.70;99.90;;;;;;5088780;28;20039;-67
2023/10/24 00:18:50;;;;;;;0.68;0.55;;;10.70;99.90;;;;;;5098303;27;20071;-66
2023/10/24 00:21:16;;;;;;;1.75;0.65;;;10.70;99.90;;;;;;5079275;28;20036;-67
2023/10/24 00:23:41;;;;;;;1.33;1.23;;;10.70;99.90;;;;;;5080429;27;20088;-67
2023/10/24 00:26:07;;;;;;;2.33;1.17;;;10.70;99.90;;;;;;5078411;28;20036;-67
2023/10/24 00:28:34;;;;;;;0.47;0.47;;;10.70;99.90;;;;;;5085840;28;20028;-68
2023/10/24 00:31:00;;;;;;;1.52;0.88;;;10.70;99.90;;;;;;5112427;27;20467;-67
2023/10/24 00:33:26;;;;;;;1.38;0.98;;;10.70;99.90;;;;;;5080877;28;20111;-67
2023/10/24 00:35:52;;;;;;;0.80;0.80;;;10.70;99.90;;;;;;5087840;27;20691;-67
2023/10/24 00:38:17;;;;;;;0.77;0.40;;;10.70;99.90;;;;;;5105436;27;20039;-67
2023/10/24 00:40:43;;;;;;;0.40;0.40;;;10.70;99.90;;;;;;5080364;28;20044;-67
2023/10/24 00:43:09;;;;;;;0.77;0.65;;;10.80;99.90;;;;;;5084297;28;20044;-67
2023/10/24 00:45:35;;;;;;;1.27;1.00;;;10.80;99.90;;;;;;5097887;28;20040;-66
2023/10/24 00:48:02;;;;;;;1.50;1.40;;;10.80;99.90;;;;;;5077570;28;20055;-67
2023/10/24 00:50:28;;;;;;;1.35;1.08;;;10.80;99.90;;;;;;5077345;28;20043;-67
2023/10/24 00:52:55;;;;;;;1.85;1.50;;;10.80;99.90;;;;;;5084423;27;20050;-67
2023/10/24 00:55:21;;;;;;;1.45;0.90;;;10.80;99.90;;;;;;5083188;27;20122;-66
2023/10/24 00:57:48;;;;;;;1.15;1.00;;;10.80;99.90;;;;;;5089236;27;20043;-66
2023/10/24 01:00:15;;;;;;;3.05;0.50;;;10.80;99.90;;;;;;5080330;28;20058;-66
2023/10/24 01:02:41;;;;;;;1.80;1.67;;;10.80;99.90;;;;;;5074917;28;20035;-66
2023/10/24 01:05:07;;;;;;;2.00;0.90;;;10.80;99.90;;;;;;5085040;27;20039;-69
2023/10/24 01:07:33;;;;;;;3.53;0.65;;;10.80;99.90;;;;;;5098559;27;20039;-67
2023/10/24 01:09:59;;;;;;;0.65;0.52;;;10.80;99.90;;;;;;5080716;27;20047;-68
2023/10/24 01:12:25;;;;;;;0.47;0.47;;;10.90;99.90;;;;;;5080062;28;20039;-67
2023/10/24 01:14:51;;;;;;;1.02;1.02;;;10.90;99.90;;;;;;5060637;27;21002;-67
2023/10/24 01:17:17;;;;;;;4.15;1.10;;;10.90;99.90;;;;;;5084147;27;20039;-67
2023/10/24 01:19:43;;;;;;;0.65;0.40;;;10.90;99.90;;;;;;5083324;28;20047;-68
2023/10/24 01:22:08;;;;;;;4.43;0.75;;;10.90;99.90;;;;;;5081845;27;20050;-67
2023/10/24 01:24:35;;;;;;;1.15;0.50;;;10.90;99.90;;;;;;5077506;28;20038;-68
2023/10/24 01:27:01;;;;;;;0.98;0.63;;;10.90;99.90;;;;;;5077887;28;20391;-67
2023/10/24 01:29:26;;;;;;;3.53;0.82;;;10.90;99.90;;;;;;5081990;28;20512;-68
2023/10/24 01:31:52;;;;;;;4.32;2.30;;;10.90;99.90;;;;;;5084890;28;20043;-67
2023/10/24 01:34:17;;;;;;;5.10;1.65;;;10.90;99.90;;;;;;5080474;28;20097;-68
2023/10/24 01:36:43;;;;;;;0.98;0.63;;;10.90;99.90;;;;;;5085228;27;20079;-67
2023/10/24 01:39:10;;;;;;;2.63;1.15;;;10.90;99.90;;;;;;5082198;28;20150;-66
2023/10/24 01:41:35;;;;;;;2.75;1.15;;;10.90;99.90;;;;;;5100322;27;20050;-67
2023/10/24 01:44:01;;;;;;;1.13;1.05;;;10.90;99.90;;;;;;5081990;28;20271;-67
2023/10/24 01:46:26;;;;;;;3.05;1.27;;;10.90;99.90;;;;;;5117300;27;20038;-67
2023/10/24 01:48:52;;;;;;;1.35;1.08;;;10.90;99.90;;;;;;5081545;28;20115;-67
2023/10/24 01:51:19;;;;;;;1.77;0.85;;;10.90;99.90;;;;;;5083513;28;20040;-67
2023/10/24 01:53:45;;;;;;;1.17;0.60;;;10.90;99.90;;;;;;5078380;28;20047;-68
2023/10/24 01:56:11;;;;;;;0.73;0.40;;;10.90;99.90;;;;;;5076920;28;20047;-67
2023/10/24 01:58:37;;;;;;;1.95;0.98;;;10.90;99.90;;;;;;5079876;28;20044;-67
2023/10/24 02:01:02;;;;;;;1.02;0.93;;;10.90;99.90;;;;;;5083221;27;20071;-68
2023/10/24 02:03:28;;;;;;;1.58;1.05;;;10.90;99.90;;;;;;5081569;28;20039;-67
2023/10/24 02:05:54;;;;;;;1.88;1.13;;;11.00;99.90;;;;;;5081926;28;20032;-67
2023/10/24 02:08:19;;;;;;;1.75;0.73;;;11.00;99.90;;;;;;5084734;28;20674;-66
2023/10/24 02:10:45;;;;;;;0.60;0.60;;;11.00;99.90;;;;;;5077907;28;20534;-66
2023/10/24 02:13:10;;;;;;;2.10;0.88;;;11.00;99.90;;;;;;5081741;27;20472;-67
2023/10/24 02:15:37;;;;;;;2.60;1.98;;;11.00;99.90;;;;;;5084707;27;20496;-66
2023/10/24 02:18:03;;;;;;;2.28;1.40;;;11.00;99.90;;;;;;5114938;27;20312;-68
2023/10/24 02:20:28;;;;;;;2.50;1.30;;;11.00;99.90;;;;;;5077140;28;20036;-67
2023/10/24 02:22:54;;;;;;;0.55;0.55;;;11.00;99.90;;;;;;5064774;28;20035;-67
2023/10/24 02:25:19;;;;;;;2.22;1.15;;;11.00;99.90;;;;;;5075309;28;20040;-67
2023/10/24 02:27:45;;;;;;;1.00;0.65;;;11.00;99.90;;;;;;5076002;28;20471;-68
2023/10/24 02:30:11;;;;;;;0.98;0.98;;;11.00;99.90;;;;;;5083151;27;20042;-67
2023/10/24 02:32:36;;;;;;;0.65;0.63;;;11.00;99.90;;;;;;5078940;28;20122;-66
2023/10/24 02:35:02;;;;;;;1.73;1.63;;;11.00;99.90;;;;;;5080256;27;20477;-66
2023/10/24 02:37:28;;;;;;;0.57;0.57;;;11.10;99.90;;;;;;5083677;27;20178;-66
2023/10/24 02:39:53;;;;;;;0.47;0.47;;;11.10;99.90;;;;;;5072495;28;20051;-66
2023/10/24 02:42:19;;;;;;;3.05;1.38;;;11.10;99.90;;;;;;5081687;28;20035;-66
2023/10/24 02:44:48;;;;;;;0.63;0.52;;;11.10;99.90;;;;;;5081341;28;20504;-66
2023/10/24 02:47:14;;;;;;;0.28;0.28;;;11.10;99.90;;;;;;5077593;28;20038;-66
2023/10/24 02:49:39;;;;;;;4.10;0.50;;;11.10;99.90;;;;;;5082417;28;20039;-66
2023/10/24 02:52:05;;;;;;;0.57;0.55;;;11.10;99.90;;;;;;5082837;28;20050;-66
2023/10/24 02:54:30;;;;;;;0.13;0.13;;;11.10;99.90;;;;;;5080949;28;20052;-66
2023/10/24 02:56:56;;;;;;;0.03;0.03;;;11.10;99.90;;;;;;5083004;28;20135;-66
2023/10/24 02:59:21;;;;;;;0.20;0.20;;;11.10;99.90;;;;;;5073587;28;20050;-66
2023/10/24 03:01:47;;;;;;;1.45;0.73;;;11.10;99.90;;;;;;5115933;27;20063;-66
2023/10/24 03:04:12;;;;;;;0.10;0.10;;;11.20;99.90;;;;;;5083263;28;20052;-66
2023/10/24 03:06:38;;;;;;;4.20;1.25;;;11.20;99.90;;;;;;5080032;28;20344;-66
2023/10/24 03:09:04;;;;;;;0.32;0.20;;;11.20;99.90;;;;;;5110232;27;20043;-66
2023/10/24 03:11:29;;;;;;;0.10;0.10;;;11.20;99.90;;;;;;5079294;28;20047;-65
2023/10/24 03:13:55;;;;;;;0.15;0.10;;;11.20;99.90;;;;;;5082264;28;20130;-66
2023/10/24 03:16:22;;;;;;;0.00;0.00;;;11.20;99.90;;;;;;5079279;28;20050;-65
2023/10/24 03:18:47;;;;;;;0.13;0.13;;;11.20;99.90;;;;;;5082681;28;20462;-66
2023/10/24 03:21:14;;;;;;;0.30;0.30;;;11.20;99.90;;;;;;5113334;28;20054;-66
2023/10/24 03:23:46;;;;;;;0.20;0.20;;;11.20;99.90;;;;;;5109355;28;20032;-65
2023/10/24 03:26:11;;;;;;;0.45;0.35;;;11.30;99.90;;;;;;5082156;28;20043;-66
2023/10/24 03:28:37;;;;;;;0.13;0.13;;;11.20;99.90;;;;;;5084601;28;20773;-66
2023/10/24 03:31:04;;;;;;;0.50;0.50;;;11.30;99.90;;;;;;5081114;28;20042;-66
2023/10/24 03:33:31;;;;;;;0.95;0.38;;;11.30;99.90;;;;;;5103817;28;20031;-66
2023/10/24 03:35:57;;;;;;;0.35;0.25;;;11.30;99.90;;;;;;5087847;28;20047;-66
2023/10/24 03:38:23;;;;;;;1.52;0.28;;;11.30;99.90;;;;;;5114015;28;20596;-66
2023/10/24 03:40:49;;;;;;;0.20;0.20;;;11.30;99.90;;;;;;5105120;28;20040;-66
2023/10/24 03:43:15;;;;;;;0.40;0.30;;;11.30;99.90;;;;;;5081227;28;20040;-66
2023/10/24 03:45:41;;;;;;;0.60;0.55;;;11.40;99.90;;;;;;5078747;28;20067;-66
2023/10/24 03:48:06;;;;;;;0.30;0.30;;;11.30;99.90;;;;;;5076102;28;20090;-66
2023/10/24 03:50:38;;;;;;;0.20;0.20;;;11.40;99.90;;;;;;5074903;28;20044;-66
2023/10/24 03:53:04;;;;;;;0.10;0.10;;;11.40;99.90;;;;;;5078129;28;20033;-66
2023/10/24 03:55:31;;;;;;;1.17;0.65;;;11.40;99.90;;;;;;5075464;28;20092;-66
2023/10/24 03:57:57;;;;;;;0.38;0.38;;;11.40;99.90;;;;;;5080454;28;20040;-67
2023/10/24 04:00:22;;;;;;;0.82;0.40;;;11.40;99.90;;;;;;5075756;28;20097;-66
2023/10/24 04:02:54;;;;;;;0.28;0.25;;;11.40;99.90;;;;;;5082510;28;20031;-67
2023/10/24 04:05:20;;;;;;;0.50;0.50;;;11.40;99.90;;;;;;5081017;28;20383;-67
2023/10/24 04:07:45;;;;;;;0.60;0.52;;;11.40;99.90;;;;;;5079551;28;20091;-66
2023/10/24 04:10:12;;;;;;;1.38;1.00;;;11.50;99.90;;;;;;5111282;27;20044;-66
2023/10/24 04:12:38;;;;;;;2.08;0.65;;;11.50;99.90;;;;;;5065895;28;20457;-66
2023/10/24 04:15:05;;;;;;;0.38;0.38;;;11.50;99.90;;;;;;5088724;28;20082;-67
2023/10/24 04:17:32;;;;;;;4.75;0.80;;;11.50;99.90;;;;;;5081977;28;20040;-67
2023/10/24 04:19:57;;;;;;;1.15;0.88;;;11.50;99.90;;;;;;5088217;28;20054;-66
2023/10/24 04:22:23;;;;;;;1.13;0.43;;;11.50;99.90;;;;;;5085478;28;20470;-67
2023/10/24 04:24:48;;;;;;;1.17;0.90;;;11.50;99.90;;;;;;5081668;27;20043;-67
2023/10/24 04:27:14;;;;;;;1.23;0.90;;;11.40;99.90;;;;;;5065441;28;20050;-66
2023/10/24 04:29:39;;;;;;;0.45;0.45;;;11.40;99.90;;;;;;5084180;28;20441;-67
2023/10/24 04:32:05;;;;;;;0.30;0.25;;;11.40;99.90;;;;;;5081077;28;20047;-67
2023/10/24 04:34:31;;;;;;;0.47;0.43;;;11.50;99.90;;;;;;5068838;28;20044;-66
2023/10/24 04:36:57;;;;;;;0.32;0.32;;;11.40;99.90;;;;;;5115213;27;20097;-67
2023/10/24 04:39:22;;;;;;;0.47;0.47;;;11.40;99.90;;;;;;5112171;27;20039;-66
2023/10/24 04:41:48;;;;;;;0.52;0.52;;;11.40;99.90;;;;;;5083670;28;20074;-67
2023/10/24 04:44:31;;;;;;;0.28;0.28;;;11.40;99.90;;;;;;5053009;27;20513;-67
2023/10/24 04:46:57;;;;;;;0.55;0.55;;;11.40;99.90;;;;;;5112719;27;20052;-67
2023/10/24 04:49:22;;;;;;;0.47;0.47;;;11.40;99.90;;;;;;5082838;28;20054;-67
2023/10/24 04:51:48;;;;;;;2.00;0.55;;;11.40;99.90;;;;;;5079524;28;20028;-67
2023/10/24 04:54:14;;;;;;;0.55;0.28;;;11.40;99.90;;;;;;5116808;27;20050;-66
2023/10/24 04:56:40;;;;;;;0.80;0.60;;;11.40;99.90;;;;;;5083702;28;20027;-67
2023/10/24 04:59:05;;;;;;;2.20;0.95;;;11.40;99.90;;;;;;5110312;27;20096;-66
2023/10/24 05:01:37;;;;;;;0.25;0.13;;;11.40;99.90;;;;;;5083529;27;20204;-67
2023/10/24 05:04:06;;;;;;;1.45;0.73;;;11.40;99.90;;;;;;5110789;27;20083;-66
2023/10/24 05:06:33;;;;;;;0.73;0.38;;;11.40;99.90;;;;;;5082725;28;20131;-67
2023/10/24 05:08:59;;;;;;;1.95;0.98;;;11.40;99.90;;;;;;5077275;28;20039;-67
2023/10/24 05:11:25;;;;;;;0.65;0.30;;;11.40;99.90;;;;;;5081579;28;20039;-67
2023/10/24 05:13:51;;;;;;;0.40;0.40;;;11.40;99.90;;;;;;5072027;27;20501;-67
2023/10/24 05:16:16;;;;;;;0.30;0.30;;;11.40;99.90;;;;;;5090310;28;20138;-67
2023/10/24 05:18:42;;;;;;;0.35;0.35;;;11.30;99.90;;;;;;5113896;27;20028;-66
2023/10/24 05:21:07;;;;;;;1.75;0.52;;;11.40;99.90;;;;;;5117796;27;20039;-66
2023/10/24 05:23:33;;;;;;;0.65;0.40;;;11.30;99.90;;;;;;5106666;27;20517;-66
2023/10/24 05:25:59;;;;;;;0.52;0.38;;;11.30;99.90;;;;;;5088203;27;20043;-66
2023/10/24 05:28:25;;;;;;;0.28;0.28;;;11.30;99.90;;;;;;5117741;27;20481;-66
2023/10/24 05:30:50;;;;;;;0.70;0.60;;;11.30;99.90;;;;;;5065775;28;20043;-66
2023/10/24 05:33:16;;;;;;;1.58;0.52;;;11.30;99.90;;;;;;5087014;27;20035;-66
2023/10/24 05:35:48;;;;;;;0.30;0.30;;;11.30;99.90;;;;;;5084970;28;20699;-66
2023/10/24 05:38:14;;;;;;;4.13;0.47;;;11.30;99.90;;;;;;5084625;28;20031;-66
2023/10/24 05:40:40;;;;;;;0.30;0.30;;;11.30;99.90;;;;;;5068478;27;20088;-66
2023/10/24 05:43:06;;;;;;;0.88;0.52;;;11.20;99.90;;;;;;5085721;28;20036;-66
2023/10/24 05:45:32;;;;;;;1.23;0.68;;;11.20;99.90;;;;;;5103820;27;20041;-66
2023/10/24 05:47:58;;;;;;;0.30;0.30;;;11.20;99.90;;;;;;5081856;28;20565;-66
2023/10/24 05:50:24;;;;;;;1.13;0.60;;;11.20;99.90;;;;;;5081937;28;20085;-66
2023/10/24 05:52:49;;;;;;;0.22;0.22;;;11.20;99.90;;;;;;5090995;27;20114;-66
2023/10/24 05:55:15;;;;;;;1.25;0.57;;;11.20;99.90;;;;;;5082560;28;20127;-66
2023/10/24 05:57:41;;;;;;;0.32;0.30;;;11.20;99.90;;;;;;5078000;28;20908;-66
2023/10/24 06:00:07;;;;;;;1.27;0.93;;;11.10;99.90;;;;;;5078876;28;20047;-66
2023/10/24 06:02:33;;;;;;;0.10;0.10;;;11.10;99.90;;;;;;5086765;28;20479;-66
2023/10/24 06:04:59;;;;;;;0.13;0.13;;;11.20;99.90;;;;;;5086501;28;20039;-66
2023/10/24 06:07:24;;;;;;;0.38;0.38;;;11.10;99.90;;;;;;5090696;28;20565;-66
2023/10/24 06:09:50;;;;;;;0.55;0.40;;;11.10;99.90;;;;;;5086078;27;20067;-66
2023/10/24 06:12:15;;;;;;;0.55;0.45;;;11.10;99.90;;;;;;5089055;27;20058;-66
2023/10/24 06:14:41;;;;;;;0.28;0.28;;;11.10;99.90;;;;;;5083615;28;20123;-65
2023/10/24 06:17:06;;;;;;;3.45;0.95;;;11.10;99.90;;;;;;5090608;27;20042;-66
2023/10/24 06:19:33;;;;;;;0.30;0.30;;;11.10;99.90;;;;;;5090964;28;20036;-66
2023/10/24 06:21:59;;;;;;;0.28;0.25;;;11.10;99.90;;;;;;5111187;27;20035;-66
2023/10/24 06:24:24;;;;;;;0.43;0.43;;;11.10;99.90;;;;;;5090671;28;20096;-66
2023/10/24 06:26:50;;;;;;;0.73;0.22;;;11.10;99.90;;;;;;5097227;28;20050;-66
2023/10/24 06:29:16;;;;;;;0.20;0.20;;;11.10;99.90;;;;;;5087200;28;20040;-65
2023/10/24 06:31:41;;;;;;;0.22;0.20;;;11.10;99.90;;;;;;5114452;27;20297;-66
2023/10/24 06:34:07;;;;;;;0.20;0.20;;;11.10;99.90;;;;;;5092442;28;20180;-67
2023/10/24 06:36:34;;;;;;;0.30;0.30;;;11.10;99.90;;;;;;5093197;28;20580;-66
2023/10/24 06:39:03;;;;;;;0.85;0.55;;;11.10;99.90;;;;;;5124864;27;20047;-66
2023/10/24 06:41:29;;;;;;;0.50;0.47;;;11.10;99.90;;;;;;5104893;28;20405;-66
2023/10/24 06:43:54;;;;;;;3.08;1.65;;;11.20;99.90;;;;;;5089176;28;20043;-66
2023/10/24 06:46:20;;;;;;;3.25;0.75;;;11.10;99.90;;;;;;5098253;28;20122;-66
2023/10/24 06:48:45;;;;;;;0.10;0.10;;;11.10;99.90;;;;;;5082693;28;20040;-67
2023/10/24 06:51:11;;;;;;;0.10;0.10;;;11.10;99.90;;;;;;5093933;27;20038;-66
2023/10/24 06:53:37;;;;;;;1.25;0.68;;;11.10;99.90;;;;;;5098743;28;20174;-66
2023/10/24 06:56:03;;;;;;;0.30;0.30;;;11.10;99.90;;;;;;5092470;28;20496;-66
2023/10/24 06:58:29;;;;;;;0.10;0.10;;;11.10;99.90;;;;;;5091435;28;20128;-66
2023/10/24 07:00:54;;;;;;;2.70;0.55;;;11.10;99.90;;;;;;5097391;27;20051;-67
2023/10/24 07:03:20;;;;;;;0.20;0.20;;;11.10;99.90;;;;;;5088639;28;20036;-67
2023/10/24 07:05:51;;;;;;;1.27;0.88;;;11.10;99.90;;;;;;5087470;28;20402;-67
2023/10/24 07:08:17;;;;;;;0.30;0.30;;;11.10;99.90;;;;;;5114855;27;20237;-67
2023/10/24 07:10:42;;;;;;;0.52;0.50;;;11.10;99.90;;;;;;5080225;28;20110;-67
2023/10/24 07:13:08;;;;;;;0.57;0.43;;;11.20;99.90;;;;;;5083152;28;20170;-67
2023/10/24 07:15:34;;;;;;;0.30;0.30;;;11.20;99.90;;;;;;5084154;28;20065;-67
2023/10/24 07:17:59;;;;;;;0.68;0.68;;;11.20;99.90;;;;;;5086310;28;20070;-67
2023/10/24 07:20:25;;;;;;;0.30;0.30;;;11.10;99.90;;;;;;5077237;28;20032;-67
2023/10/24 07:22:50;;;;;;;1.13;0.50;;;11.20;99.90;;;;;;5094840;28;20292;-67
2023/10/24 07:25:16;;;;;;;0.98;0.77;;;11.20;99.90;;;;;;5089886;28;20039;-67
2023/10/24 07:27:41;;;;;;;0.73;0.70;;;11.20;99.90;;;;;;5107280;28;20070;-67
2023/10/24 07:30:09;;;;;;;0.50;0.50;;;11.10;99.90;;;;;;5089539;28;20041;-67
2023/10/24 07:32:34;;;;;;;0.20;0.20;;;11.20;99.90;;;;;;5083828;28;20054;-67
2023/10/24 07:35:01;;;;;;;0.95;0.93;;;11.10;99.90;;;;;;5087973;28;20035;-68
2023/10/24 07:37:28;;;;;;;0.55;0.47;;;11.20;99.90;;;;;;5105690;28;20044;-68
2023/10/24 07:39:54;;;;;;;1.48;1.38;;;11.20;99.90;;;;;;5076399;28;20050;-67
2023/10/24 07:42:20;;;;;;;0.43;0.43;;;11.20;99.90;;;;;;5073347;28;20039;-68
2023/10/24 07:44:45;;;;;;;0.68;0.38;;;11.20;99.90;;;;;;5085584;28;20039;-67
2023/10/24 07:47:11;;;;;;;0.35;0.35;;;11.10;99.90;;;;;;5088800;27;20855;-67
2023/10/24 07:49:36;;;;;;;0.85;0.75;;;11.20;99.90;;;;;;5074824;27;20050;-68
2023/10/24 07:52:03;;;;;;;0.80;0.40;;;11.20;99.90;;;;;;5091765;27;20043;-67
2023/10/24 07:54:29;;;;;;;0.40;0.40;;;11.20;99.90;;;;;;5098392;28;20096;-67
2023/10/24 07:56:55;;;;;;;0.52;0.52;;;11.20;99.90;;;;;;5097461;27;20092;-67
2023/10/24 07:59:20;;;;;;;0.30;0.30;;;11.20;99.90;;;;;;5087002;28;20044;-68
2023/10/24 08:01:46;;;;;;;2.08;0.65;;;11.20;99.90;;;;;;5089248;28;20084;-67
2023/10/24 08:04:11;;;;;;;1.52;1.42;;;11.20;99.90;;;;;;5088457;28;20093;-68
2023/10/24 08:06:37;;;;;;;0.45;0.43;;;11.20;99.90;;;;;;5073883;27;20036;-68
2023/10/24 08:09:03;;;;;;;0.85;0.82;;;11.20;99.90;;;;;;5091695;27;20036;-67
2023/10/24 08:11:28;;;;;;;0.20;0.20;;;11.20;99.90;;;;;;5091710;27;20031;-67
2023/10/24 08:13:54;;;;;;;0.82;0.82;;;11.20;99.90;;;;;;5090741;27;20232;-67
2023/10/24 08:16:20;;;;;;;0.28;0.28;;;11.20;99.90;;;;;;5088961;28;20031;-67
2023/10/24 08:18:46;;;;;;;0.68;0.40;;;11.20;99.90;;;;;;5120843;27;20052;-67
2023/10/24 08:21:12;;;;;;;0.10;0.10;;;11.10;99.90;;;;;;5092297;27;20046;-68
2023/10/24 08:23:38;;;;;;;0.20;0.20;;;11.20;99.90;;;;;;5091083;27;20505;-67
2023/10/24 08:26:04;;;;;;;0.50;0.50;;;11.20;99.90;;;;;;5092465;27;20039;-68
2023/10/24 08:28:30;;;;;;;0.10;0.10;;;11.20;99.90;;;;;;5100148;28;20447;-67
2023/10/24 08:30:56;;;;;;;0.77;0.73;;;11.20;99.90;;;;;;5092583;27;20533;-68
2023/10/24 08:33:22;;;;;;;0.52;0.38;;;11.20;99.90;;;;;;5099283;27;20075;-69
2023/10/24 08:35:48;;;;;;;0.47;0.47;;;11.20;99.90;;;;;;5091122;28;20040;-68
2023/10/24 08:38:13;;;;;;;0.45;0.43;;;11.20;99.90;;;;;;5091451;27;20055;-67
2023/10/24 08:40:42;;;;;;;0.77;0.77;;;11.20;99.90;;;;;;5093200;27;20107;-68
2023/10/24 08:43:11;;;;;;;1.35;0.77;;;11.30;99.90;;;;;;5089169;27;20088;-67
2023/10/24 08:45:37;;;;;;;0.60;0.57;;;11.30;99.90;;;;;;5089586;28;20036;-67
2023/10/24 08:48:06;;;;;;;0.30;0.25;;;11.30;99.90;;;;;;5082635;28;20036;-67
2023/10/24 08:50:33;;;;;;;0.30;0.30;;;11.30;99.90;;;;;;5079972;28;20552;-68
2023/10/24 08:52:58;;;;;;;0.70;0.30;;;11.40;99.90;;;;;;5108288;27;20042;-68
2023/10/24 08:55:24;;;;;;;0.30;0.30;;;11.40;99.90;;;;;;5093973;28;20431;-67
2023/10/24 08:57:51;;;;;;;0.55;0.20;;;11.50;99.90;;;;;;5096246;27;20468;-67
2023/10/24 09:00:17;;;;;;;1.30;1.17;;;11.50;99.90;;;;;;5080759;28;20087;-67
2023/10/24 09:02:44;;;;;;;0.55;0.50;;;11.50;99.90;;;;;;5094811;28;20075;-68
2023/10/24 09:05:11;;;;;;;0.93;0.80;;;11.50;99.90;;;;;;5089236;28;20044;-68
2023/10/24 09:07:37;;;;;;;0.47;0.40;;;11.50;99.90;;;;;;5090463;28;20439;-67
2023/10/24 09:10:03;;;;;;;1.30;0.95;;;11.50;99.90;;;;;;5077739;28;20126;-68
2023/10/24 09:12:30;;;;;;;0.63;0.40;;;11.40;99.90;;;;;;5092542;28;20075;-68
2023/10/24 09:14:56;;;;;;;0.22;0.22;;;11.40;99.90;;;;;;5090648;28;20443;-68
2023/10/24 09:17:24;;;;;;;0.50;0.30;;;11.50;99.90;;;;;;5095011;28;20062;-67
2023/10/24 09:19:50;;;;;;;0.55;0.55;;;11.40;99.90;;;;;;5080621;28;20055;-68
2023/10/24 09:22:16;;;;;;;1.27;0.63;;;11.40;99.90;;;;;;5083890;28;20066;-68
2023/10/24 09:24:49;;;;;;;0.60;0.30;;;11.40;99.90;;;;;;5089732;27;20122;-68
2023/10/24 09:27:23;;;;;;;0.70;0.70;;;11.40;99.90;;;;;;5087040;27;20036;-68
2023/10/24 09:29:51;;;;;;;0.90;0.80;;;11.40;99.90;;;;;;5073084;28;20044;-68
2023/10/24 09:32:17;;;;;;;0.30;0.30;;;11.40;99.90;;;;;;5093663;28;20035;-68
2023/10/24 09:34:44;;;;;;;0.38;0.38;;;11.40;99.90;;;;;;5083289;28;20042;-68
2023/10/24 09:37:10;;;;;;;0.40;0.40;;;11.40;99.90;;;;;;5114551;27;20051;-68
2023/10/24 09:39:53;;;;;;;4.22;1.73;;;11.40;99.90;;;;;;5096490;27;20050;-68
2023/10/24 09:42:24;;;;;;;0.52;0.52;;;11.40;99.90;;;;;;5111920;27;20040;-67
2023/10/24 09:44:53;;;;;;;3.00;0.77;;;11.40;99.90;;;;;;5084257;28;20104;-67
2023/10/24 09:47:19;;;;;;;0.73;0.73;;;11.40;99.90;;;;;;5074701;28;20056;-67
2023/10/24 09:49:46;;;;;;;1.55;0.55;;;11.40;99.90;;;;;;5090324;27;20043;-67
2023/10/24 09:52:11;;;;;;;0.38;0.38;;;11.40;99.90;;;;;;5088124;28;20047;-67
2023/10/24 09:54:39;;;;;;;0.45;0.45;;;11.40;99.90;;;;;;5108738;28;20031;-67
2023/10/24 09:57:05;;;;;;;0.50;0.32;;;11.40;99.90;;;;;;5080081;28;20051;-68
2023/10/24 09:59:32;;;;;;;3.22;1.20;;;11.40;99.90;;;;;;5114500;27;20051;-68
2023/10/24 10:02:00;;;;;;;1.30;1.20;;;11.40;99.90;;;;;;5093270;28;20039;-68
2023/10/24 10:04:26;;;;;;;1.00;0.90;;;11.50;99.90;;;;;;5101297;28;20062;-67
2023/10/24 10:06:53;;;;;;;0.63;0.63;;;11.60;99.90;;;;;;5097261;28;20052;-68
2023/10/24 10:09:19;;;;;;;0.28;0.28;;;11.80;99.90;;;;;;5089594;28;20051;-67
2023/10/24 10:11:47;;;;;;;0.30;0.30;;;11.90;99.90;;;;;;5087612;28;20039;-67
2023/10/24 10:14:37;;;;;;;1.02;0.88;;;12.00;99.90;;;;;;5122525;27;20074;-67
2023/10/24 10:17:20;;;;;;;2.08;1.00;;;12.10;99.90;;;;;;5089947;28;20040;-67
2023/10/24 10:20:04;;;;;;;1.13;0.32;;;12.10;99.90;;;;;;5094483;27;20039;-68
2023/10/24 10:22:54;;;;;;;0.82;0.80;;;12.20;99.90;;;;;;5093080;27;20045;-68
2023/10/24 10:25:49;;;;;;;0.43;0.43;;;12.10;99.90;;;;;;5077091;28;21798;-67
2023/10/24 10:28:44;;;;;;;0.50;0.50;;;12.10;99.90;;;;;;5078185;28;20050;-67
2023/10/24 10:31:15;;;;;;;1.00;0.40;;;12.10;99.90;;;;;;5115909;27;20452;-67
2023/10/24 10:33:41;;;;;;;1.10;0.73;;;12.20;99.90;;;;;;5103457;28;20085;-67
2023/10/24 10:36:11;;;;;;;0.63;0.63;;;12.20;99.90;;;;;;5094371;28;20071;-67
2023/10/24 10:38:45;;;;;;;2.80;0.45;;;12.30;99.90;;;;;;5103649;28;20070;-67
2023/10/24 10:41:22;;;;;;;1.17;0.65;;;12.30;99.90;;;;;;5084215;28;20056;-67
2023/10/24 10:43:48;;;;;;;1.85;1.50;;;12.40;99.90;;;;;;5096634;27;20082;-68
2023/10/24 10:46:23;;;;;;;1.80;1.70;;;12.40;99.90;;;;;;5099456;28;20032;-67
2023/10/24 10:48:50;;;;;;;1.77;0.90;;;12.50;99.90;;;;;;5109731;27;20032;-68
2023/10/24 10:51:20;;;;;;;1.30;0.52;;;12.50;99.90;;;;;;5114671;27;20047;-68
2023/10/24 10:54:17;;;;;;;1.65;0.52;;;12.50;99.90;;;;;;5090272;28;20116;-69
2023/10/24 10:56:44;;;;;;;1.48;0.75;;;12.50;99.90;;;;;;5120858;27;20043;-68
2023/10/24 10:59:43;;;;;;;1.17;1.05;;;12.60;99.90;;;;;;5090472;28;20047;-69
2023/10/24 11:02:30;;;;;;;0.70;0.70;;;12.70;99.90;;;;;;5116528;27;20123;-70
2023/10/24 11:04:56;;;;;;;1.00;1.00;;;12.80;99.90;;;;;;5085523;28;20047;-68
2023/10/24 11:07:50;;;;;;;3.10;0.90;;;12.90;99.90;;;;;;5077444;28;20048;-69
2023/10/24 11:10:16;;;;;;;3.10;1.63;;;13.00;99.90;;;;;;5105612;28;20048;-69
2023/10/24 11:12:48;;;;;;;1.13;0.85;;;13.10;99.90;;;;;;5089658;28;20043;-68
2023/10/24 11:15:13;;;;;;;3.30;0.40;;;13.30;99.90;;;;;;5096963;28;20038;-68
2023/10/24 11:17:40;;;;;;;0.60;0.60;;;13.30;99.90;;;;;;5078529;28;20048;-68
2023/10/24 11:20:10;;;;;;;1.58;0.77;;;13.30;99.90;;;;;;5080146;28;20031;-69
2023/10/24 11:22:36;;;;;;;0.20;0.20;;;13.30;99.90;;;;;;5085970;28;20114;-68
2023/10/24 11:25:09;;;;;;;0.65;0.65;;;13.20;99.90;;;;;;5085019;28;20550;-68
2023/10/24 11:27:34;;;;;;;1.10;0.70;;;13.10;99.90;;;;;;5112967;27;20128;-68
2023/10/24 11:30:00;;;;;;;1.70;0.65;;;13.10;99.90;;;;;;5075682;28;20508;-68
2023/10/24 11:32:26;;;;;;;0.38;0.38;;;13.00;99.90;;;;;;5080887;28;20046;-68
2023/10/24 11:34:51;;;;;;;1.65;0.77;;;12.90;99.90;;;;;;5076712;28;20052;-69
2023/10/24 11:37:17;;;;;;;1.25;0.73;;;13.00;99.90;;;;;;5095190;28;20043;-69
2023/10/24 11:39:43;;;;;;;0.80;0.43;;;12.90;99.90;;;;;;5076873;27;20044;-68
2023/10/24 11:42:08;;;;;;;1.08;0.73;;;13.00;99.90;;;;;;5088619;28;20063;-69
2023/10/24 11:44:34;;;;;;;0.40;0.40;;;13.00;99.90;;;;;;5117957;27;20456;-68
2023/10/24 11:47:02;;;;;;;0.68;0.68;;;13.10;99.90;;;;;;5089908;28;20035;-68
2023/10/24 11:49:36;;;;;;;0.75;0.60;;;13.10;99.90;;;;;;5093982;28;20040;-68
2023/10/24 11:52:04;;;;;;;1.58;0.70;;;13.10;99.90;;;;;;5091899;28;20032;-69
2023/10/24 11:54:29;;;;;;;1.23;0.50;;;13.10;99.90;;;;;;5120670;27;20039;-69
2023/10/24 11:56:58;;;;;;;0.55;0.55;;;13.10;99.90;;;;;;5095337;27;20381;-69
2023/10/24 11:59:33;;;;;;;2.72;1.20;;;13.00;99.90;;;;;;5096423;28;20066;-69
2023/10/24 12:02:00;;;;;;;2.50;1.50;;;13.00;99.90;;;;;;5114621;27;20067;-68
2023/10/24 12:04:25;;;;;;;1.00;0.80;;;13.00;99.90;;;;;;5090323;28;20027;-69
2023/10/24 12:07:01;;;;;;;1.30;1.00;;;13.10;99.90;;;;;;5095698;28;20559;-69
2023/10/24 12:09:27;;;;;;;1.60;0.98;;;13.10;99.90;;;;;;5076280;28;20127;-69
2023/10/24 12:11:52;;;;;;;1.10;0.98;;;13.10;99.90;;;;;;5085460;28;20284;-68
2023/10/24 12:14:18;;;;;;;1.05;0.82;;;13.10;99.90;;;;;;5117904;27;20119;-69
2023/10/24 12:16:46;;;;;;;2.22;0.90;;;13.10;99.90;;;;;;5093050;28;20054;-69
2023/10/24 12:19:12;;;;;;;0.98;0.70;;;13.20;99.90;;;;;;5089015;28;20130;-68
2023/10/24 12:21:37;;;;;;;1.48;1.05;;;13.20;99.90;;;;;;5081101;27;20035;-69
2023/10/24 12:24:03;;;;;;;1.77;0.85;;;13.10;99.90;;;;;;5080905;28;20135;-68
2023/10/24 12:26:29;;;;;;;0.82;0.47;;;13.20;99.90;;;;;;5089498;28;20115;-69
2023/10/24 12:28:54;;;;;;;1.33;1.23;;;13.20;99.90;;;;;;5093593;28;20039;-69
2023/10/24 12:31:20;;;;;;;0.63;0.63;;;13.20;99.90;;;;;;5093877;27;20044;-68
2023/10/24 12:33:45;;;;;;;0.50;0.50;;;13.20;99.90;;;;;;5089798;28;20059;-69
2023/10/24 12:36:11;;;;;;;0.80;0.80;;;13.30;99.90;;;;;;5087865;28;20394;-69
2023/10/24 12:38:37;;;;;;;3.08;0.88;;;13.20;99.90;;;;;;5087776;27;20035;-68
2023/10/24 12:41:03;;;;;;;0.93;0.93;;;13.10;99.90;;;;;;5097224;28;20123;-69
2023/10/24 12:43:29;;;;;;;1.08;0.55;;;13.10;99.90;;;;;;5110843;27;20114;-68
2023/10/24 12:45:54;;;;;;;0.68;0.68;;;13.00;99.90;;;;;;5092834;28;20031;-68
2023/10/24 12:48:20;;;;;;;0.52;0.40;;;13.00;99.90;;;;;;5112688;27;20054;-68